sensor_id;sensor_type;location;lat;lon;timestamp;temperature;humidity
12130;DHT22;6128;59.340;18.040;2023-05-07T00:00:42;3.70;90.00
12130;DHT22;6128;59.340;18.040;2023-05-07T00:03:09;3.70;89.90
12130;DHT22;6128;59.340;18.040;2023-05-07T00:05:38;3.70;90.10
12130;DHT22;6128;59.340;18.040;2023-05-07T00:08:05;3.70;90.30
12130;DHT22;6128;59.340;18.040;2023-05-07T00:10:32;3.70;90.60
12130;DHT22;6128;59.340;18.040;2023-05-07T00:12:59;3.70;90.70
12130;DHT22;6128;59.340;18.040;2023-05-07T00:15:26;3.60;90.80
12130;DHT22;6128;59.340;18.040;2023-05-07T00:17:53;3.60;91.00
12130;DHT22;6128;59.340;18.040;2023-05-07T00:20:20;3.60;91.10
12130;DHT22;6128;59.340;18.040;2023-05-07T00:22:49;3.60;91.20
12130;DHT22;6128;59.340;18.040;2023-05-07T00:25:16;3.60;91.30
12130;DHT22;6128;59.340;18.040;2023-05-07T00:27:45;3.60;91.40
12130;DHT22;6128;59.340;18.040;2023-05-07T00:30:12;3.60;91.50
12130;DHT22;6128;59.340;18.040;2023-05-07T00:32:40;3.60;91.50
12130;DHT22;6128;59.340;18.040;2023-05-07T00:35:08;3.60;91.40
12130;DHT22;6128;59.340;18.040;2023-05-07T00:37:35;3.60;91.30
12130;DHT22;6128;59.340;18.040;2023-05-07T00:40:05;3.60;91.40
12130;DHT22;6128;59.340;18.040;2023-05-07T00:42:33;3.50;91.50
12130;DHT22;6128;59.340;18.040;2023-05-07T00:45:00;3.50;91.50
12130;DHT22;6128;59.340;18.040;2023-05-07T00:47:27;3.50;91.70
12130;DHT22;6128;59.340;18.040;2023-05-07T00:49:54;3.50;91.80
12130;DHT22;6128;59.340;18.040;2023-05-07T00:52:22;3.40;92.10
12130;DHT22;6128;59.340;18.040;2023-05-07T00:54:50;3.40;92.40
12130;DHT22;6128;59.340;18.040;2023-05-07T00:57:21;3.50;92.60
12130;DHT22;6128;59.340;18.040;2023-05-07T00:59:48;3.50;92.90
12130;DHT22;6128;59.340;18.040;2023-05-07T01:02:16;3.40;93.10
12130;DHT22;6128;59.340;18.040;2023-05-07T01:04:43;3.40;93.20
12130;DHT22;6128;59.340;18.040;2023-05-07T01:07:11;3.40;93.20
12130;DHT22;6128;59.340;18.040;2023-05-07T01:09:38;3.40;93.10
12130;DHT22;6128;59.340;18.040;2023-05-07T01:12:07;3.40;93.00
12130;DHT22;6128;59.340;18.040;2023-05-07T01:14:36;3.40;92.80
12130;DHT22;6128;59.340;18.040;2023-05-07T01:17:03;3.30;92.60
12130;DHT22;6128;59.340;18.040;2023-05-07T01:19:31;3.30;92.70
12130;DHT22;6128;59.340;18.040;2023-05-07T01:22:02;3.30;92.60
12130;DHT22;6128;59.340;18.040;2023-05-07T01:24:32;3.30;92.60
12130;DHT22;6128;59.340;18.040;2023-05-07T01:26:59;3.30;92.70
12130;DHT22;6128;59.340;18.040;2023-05-07T01:29:28;3.20;93.00
12130;DHT22;6128;59.340;18.040;2023-05-07T01:31:57;3.20;93.10
12130;DHT22;6128;59.340;18.040;2023-05-07T01:34:25;3.20;93.20
12130;DHT22;6128;59.340;18.040;2023-05-07T01:36:54;3.20;93.40
12130;DHT22;6128;59.340;18.040;2023-05-07T01:39:25;3.10;93.50
12130;DHT22;6128;59.340;18.040;2023-05-07T01:41:55;3.10;93.40
12130;DHT22;6128;59.340;18.040;2023-05-07T01:44:23;3.10;93.60
12130;DHT22;6128;59.340;18.040;2023-05-07T01:46:50;3.10;93.70
12130;DHT22;6128;59.340;18.040;2023-05-07T01:49:18;3.10;93.70
12130;DHT22;6128;59.340;18.040;2023-05-07T01:51:45;3.10;93.80
12130;DHT22;6128;59.340;18.040;2023-05-07T01:54:13;3.10;93.80
12130;DHT22;6128;59.340;18.040;2023-05-07T01:56:40;3.00;93.90
12130;DHT22;6128;59.340;18.040;2023-05-07T01:59:09;3.00;94.00
12130;DHT22;6128;59.340;18.040;2023-05-07T02:01:36;3.00;94.00
12130;DHT22;6128;59.340;18.040;2023-05-07T02:04:03;3.00;94.10
12130;DHT22;6128;59.340;18.040;2023-05-07T02:06:30;3.00;94.20
12130;DHT22;6128;59.340;18.040;2023-05-07T02:08:57;3.00;94.40
12130;DHT22;6128;59.340;18.040;2023-05-07T02:11:24;3.00;94.60
12130;DHT22;6128;59.340;18.040;2023-05-07T02:13:52;3.00;94.80
12130;DHT22;6128;59.340;18.040;2023-05-07T02:16:21;3.00;95.10
12130;DHT22;6128;59.340;18.040;2023-05-07T02:18:48;3.00;95.50
12130;DHT22;6128;59.340;18.040;2023-05-07T02:21:16;3.00;96.30
12130;DHT22;6128;59.340;18.040;2023-05-07T02:23:43;3.00;96.70
12130;DHT22;6128;59.340;18.040;2023-05-07T02:26:10;3.00;97.00
12130;DHT22;6128;59.340;18.040;2023-05-07T02:28:37;2.90;97.10
12130;DHT22;6128;59.340;18.040;2023-05-07T02:31:04;2.90;97.20
12130;DHT22;6128;59.340;18.040;2023-05-07T02:33:33;2.90;97.60
12130;DHT22;6128;59.340;18.040;2023-05-07T02:36:06;2.90;97.30
12130;DHT22;6128;59.340;18.040;2023-05-07T02:38:34;2.90;97.50
12130;DHT22;6128;59.340;18.040;2023-05-07T02:41:01;2.90;97.40
12130;DHT22;6128;59.340;18.040;2023-05-07T02:43:28;2.90;97.40
12130;DHT22;6128;59.340;18.040;2023-05-07T02:46:02;2.90;97.60
12130;DHT22;6128;59.340;18.040;2023-05-07T02:48:29;2.90;97.90
12130;DHT22;6128;59.340;18.040;2023-05-07T02:50:58;2.90;98.10
12130;DHT22;6128;59.340;18.040;2023-05-07T02:53:25;2.90;98.40
12130;DHT22;6128;59.340;18.040;2023-05-07T02:55:53;2.90;98.80
12130;DHT22;6128;59.340;18.040;2023-05-07T02:58:20;2.90;99.00
12130;DHT22;6128;59.340;18.040;2023-05-07T03:00:47;2.90;99.00
12130;DHT22;6128;59.340;18.040;2023-05-07T03:03:14;2.90;99.30
12130;DHT22;6128;59.340;18.040;2023-05-07T03:05:41;2.90;99.20
12130;DHT22;6128;59.340;18.040;2023-05-07T03:08:10;2.90;99.30
12130;DHT22;6128;59.340;18.040;2023-05-07T03:10:37;3.00;99.40
12130;DHT22;6128;59.340;18.040;2023-05-07T03:13:04;3.00;99.60
12130;DHT22;6128;59.340;18.040;2023-05-07T03:15:32;3.00;99.70
12130;DHT22;6128;59.340;18.040;2023-05-07T03:17:59;3.00;99.50
12130;DHT22;6128;59.340;18.040;2023-05-07T03:20:26;3.00;99.50
12130;DHT22;6128;59.340;18.040;2023-05-07T03:22:53;3.00;99.50
12130;DHT22;6128;59.340;18.040;2023-05-07T03:25:21;3.00;99.50
12130;DHT22;6128;59.340;18.040;2023-05-07T03:27:48;3.00;99.50
12130;DHT22;6128;59.340;18.040;2023-05-07T03:30:15;3.00;99.50
12130;DHT22;6128;59.340;18.040;2023-05-07T03:32:43;3.00;99.70
12130;DHT22;6128;59.340;18.040;2023-05-07T03:35:10;3.00;99.80
12130;DHT22;6128;59.340;18.040;2023-05-07T03:37:38;3.10;99.80
12130;DHT22;6128;59.340;18.040;2023-05-07T03:40:06;3.10;99.80
12130;DHT22;6128;59.340;18.040;2023-05-07T03:42:35;3.10;99.80
12130;DHT22;6128;59.340;18.040;2023-05-07T03:45:02;3.20;99.80
12130;DHT22;6128;59.340;18.040;2023-05-07T03:47:29;3.20;99.80
12130;DHT22;6128;59.340;18.040;2023-05-07T03:49:56;3.20;99.80
12130;DHT22;6128;59.340;18.040;2023-05-07T03:52:23;3.30;99.80
12130;DHT22;6128;59.340;18.040;2023-05-07T03:54:52;3.40;99.80
12130;DHT22;6128;59.340;18.040;2023-05-07T03:57:19;3.40;99.80
12130;DHT22;6128;59.340;18.040;2023-05-07T03:59:47;3.50;99.90
12130;DHT22;6128;59.340;18.040;2023-05-07T04:02:14;3.50;99.90
12130;DHT22;6128;59.340;18.040;2023-05-07T04:04:41;3.60;99.90
12130;DHT22;6128;59.340;18.040;2023-05-07T04:07:09;3.60;99.90
12130;DHT22;6128;59.340;18.040;2023-05-07T04:09:36;3.60;99.90
12130;DHT22;6128;59.340;18.040;2023-05-07T04:12:03;3.70;99.90
12130;DHT22;6128;59.340;18.040;2023-05-07T04:14:30;3.70;99.90
12130;DHT22;6128;59.340;18.040;2023-05-07T04:17:00;3.80;99.90
12130;DHT22;6128;59.340;18.040;2023-05-07T04:19:28;3.80;99.90
12130;DHT22;6128;59.340;18.040;2023-05-07T04:21:55;3.90;99.90
12130;DHT22;6128;59.340;18.040;2023-05-07T04:24:22;4.00;99.90
12130;DHT22;6128;59.340;18.040;2023-05-07T04:26:49;4.00;99.90
12130;DHT22;6128;59.340;18.040;2023-05-07T04:29:17;4.00;99.90
12130;DHT22;6128;59.340;18.040;2023-05-07T04:31:44;4.10;99.90
12130;DHT22;6128;59.340;18.040;2023-05-07T04:34:12;4.10;99.90
12130;DHT22;6128;59.340;18.040;2023-05-07T04:36:39;4.10;99.90
12130;DHT22;6128;59.340;18.040;2023-05-07T04:39:07;4.20;99.90
12130;DHT22;6128;59.340;18.040;2023-05-07T04:41:36;4.20;99.90
12130;DHT22;6128;59.340;18.040;2023-05-07T04:44:03;4.30;99.90
12130;DHT22;6128;59.340;18.040;2023-05-07T04:46:31;4.30;99.90
12130;DHT22;6128;59.340;18.040;2023-05-07T04:48:58;4.30;99.90
12130;DHT22;6128;59.340;18.040;2023-05-07T04:51:27;4.40;99.90
12130;DHT22;6128;59.340;18.040;2023-05-07T04:53:54;4.40;99.90
12130;DHT22;6128;59.340;18.040;2023-05-07T04:56:21;4.40;99.90
12130;DHT22;6128;59.340;18.040;2023-05-07T04:58:48;4.50;99.90
12130;DHT22;6128;59.340;18.040;2023-05-07T05:01:15;4.50;99.90
12130;DHT22;6128;59.340;18.040;2023-05-07T05:03:42;4.60;99.90
12130;DHT22;6128;59.340;18.040;2023-05-07T05:06:10;4.60;99.90
12130;DHT22;6128;59.340;18.040;2023-05-07T05:08:38;4.80;99.90
12130;DHT22;6128;59.340;18.040;2023-05-07T05:11:05;4.90;99.90
12130;DHT22;6128;59.340;18.040;2023-05-07T05:13:32;5.00;99.90
12130;DHT22;6128;59.340;18.040;2023-05-07T05:16:00;5.10;99.90
12130;DHT22;6128;59.340;18.040;2023-05-07T05:18:26;5.20;99.90
12130;DHT22;6128;59.340;18.040;2023-05-07T05:20:54;5.20;99.90
12130;DHT22;6128;59.340;18.040;2023-05-07T05:23:21;5.30;99.90
12130;DHT22;6128;59.340;18.040;2023-05-07T05:25:49;5.40;99.90
12130;DHT22;6128;59.340;18.040;2023-05-07T05:28:16;5.40;99.90
12130;DHT22;6128;59.340;18.040;2023-05-07T05:30:43;5.50;99.90
12130;DHT22;6128;59.340;18.040;2023-05-07T05:33:10;5.50;99.90
12130;DHT22;6128;59.340;18.040;2023-05-07T05:35:37;5.50;99.90
12130;DHT22;6128;59.340;18.040;2023-05-07T05:38:04;5.50;99.90
12130;DHT22;6128;59.340;18.040;2023-05-07T05:40:31;5.60;99.90
12130;DHT22;6128;59.340;18.040;2023-05-07T05:43:00;5.60;99.90
12130;DHT22;6128;59.340;18.040;2023-05-07T05:45:27;5.70;99.90
12130;DHT22;6128;59.340;18.040;2023-05-07T05:47:56;5.70;99.90
12130;DHT22;6128;59.340;18.040;2023-05-07T05:50:23;5.70;99.90
12130;DHT22;6128;59.340;18.040;2023-05-07T05:52:50;5.80;99.90
12130;DHT22;6128;59.340;18.040;2023-05-07T05:55:17;5.90;99.90
12130;DHT22;6128;59.340;18.040;2023-05-07T05:57:44;6.00;99.90
12130;DHT22;6128;59.340;18.040;2023-05-07T06:00:13;6.10;99.90
12130;DHT22;6128;59.340;18.040;2023-05-07T06:02:41;6.20;99.90
12130;DHT22;6128;59.340;18.040;2023-05-07T06:05:09;6.50;99.90
12130;DHT22;6128;59.340;18.040;2023-05-07T06:07:36;7.00;99.90
12130;DHT22;6128;59.340;18.040;2023-05-07T06:10:04;7.40;99.90
12130;DHT22;6128;59.340;18.040;2023-05-07T06:12:31;7.70;99.90
12130;DHT22;6128;59.340;18.040;2023-05-07T06:14:58;8.00;99.90
12130;DHT22;6128;59.340;18.040;2023-05-07T06:17:27;8.20;99.90
12130;DHT22;6128;59.340;18.040;2023-05-07T06:19:54;8.70;99.90
12130;DHT22;6128;59.340;18.040;2023-05-07T06:22:21;9.70;99.90
12130;DHT22;6128;59.340;18.040;2023-05-07T06:24:48;10.90;99.90
12130;DHT22;6128;59.340;18.040;2023-05-07T06:27:16;12.00;99.90
12130;DHT22;6128;59.340;18.040;2023-05-07T06:29:44;13.10;99.90
12130;DHT22;6128;59.340;18.040;2023-05-07T06:32:12;13.90;99.90
12130;DHT22;6128;59.340;18.040;2023-05-07T06:34:41;14.60;99.80
12130;DHT22;6128;59.340;18.040;2023-05-07T06:37:13;15.30;99.60
12130;DHT22;6128;59.340;18.040;2023-05-07T06:39:42;16.10;99.40
12130;DHT22;6128;59.340;18.040;2023-05-07T06:42:10;16.80;99.20
12130;DHT22;6128;59.340;18.040;2023-05-07T06:44:39;17.50;99.00
12130;DHT22;6128;59.340;18.040;2023-05-07T06:47:06;18.10;98.70
12130;DHT22;6128;59.340;18.040;2023-05-07T06:49:34;18.40;98.30
12130;DHT22;6128;59.340;18.040;2023-05-07T06:52:03;18.60;98.10
12130;DHT22;6128;59.340;18.040;2023-05-07T06:54:33;18.80;97.60
12130;DHT22;6128;59.340;18.040;2023-05-07T06:57:00;19.10;97.20
12130;DHT22;6128;59.340;18.040;2023-05-07T06:59:28;19.40;96.20
12130;DHT22;6128;59.340;18.040;2023-05-07T07:01:55;19.30;95.20
12130;DHT22;6128;59.340;18.040;2023-05-07T07:04:22;19.20;93.80
12130;DHT22;6128;59.340;18.040;2023-05-07T07:06:52;19.40;93.50
12130;DHT22;6128;59.340;18.040;2023-05-07T07:09:25;19.30;92.40
12130;DHT22;6128;59.340;18.040;2023-05-07T07:11:53;19.10;91.40
12130;DHT22;6128;59.340;18.040;2023-05-07T07:14:20;18.70;90.70
12130;DHT22;6128;59.340;18.040;2023-05-07T07:16:47;18.60;89.20
12130;DHT22;6128;59.340;18.040;2023-05-07T07:19:14;18.90;87.80
12130;DHT22;6128;59.340;18.040;2023-05-07T07:21:42;19.30;87.50
12130;DHT22;6128;59.340;18.040;2023-05-07T07:24:10;19.10;87.10
12130;DHT22;6128;59.340;18.040;2023-05-07T07:26:39;19.10;85.20
12130;DHT22;6128;59.340;18.040;2023-05-07T07:29:08;19.20;81.40
12130;DHT22;6128;59.340;18.040;2023-05-07T07:31:35;19.30;81.00
12130;DHT22;6128;59.340;18.040;2023-05-07T07:34:02;19.50;81.10
12130;DHT22;6128;59.340;18.040;2023-05-07T07:36:29;18.50;80.50
12130;DHT22;6128;59.340;18.040;2023-05-07T07:38:56;18.10;77.70
12130;DHT22;6128;59.340;18.040;2023-05-07T07:41:24;18.00;77.20
12130;DHT22;6128;59.340;18.040;2023-05-07T07:43:52;18.30;76.30
12130;DHT22;6128;59.340;18.040;2023-05-07T07:46:19;18.30;75.50
12130;DHT22;6128;59.340;18.040;2023-05-07T07:48:46;18.50;74.80
12130;DHT22;6128;59.340;18.040;2023-05-07T07:51:13;18.40;74.40
12130;DHT22;6128;59.340;18.040;2023-05-07T07:53:40;17.80;72.70
12130;DHT22;6128;59.340;18.040;2023-05-07T07:56:08;17.50;72.40
12130;DHT22;6128;59.340;18.040;2023-05-07T07:58:35;17.60;71.50
12130;DHT22;6128;59.340;18.040;2023-05-07T08:01:05;17.30;71.10
12130;DHT22;6128;59.340;18.040;2023-05-07T08:03:32;17.10;70.60
12130;DHT22;6128;59.340;18.040;2023-05-07T08:05:59;16.90;70.50
12130;DHT22;6128;59.340;18.040;2023-05-07T08:08:26;16.60;70.40
12130;DHT22;6128;59.340;18.040;2023-05-07T08:10:53;16.00;70.10
12130;DHT22;6128;59.340;18.040;2023-05-07T08:13:20;15.40;70.00
12130;DHT22;6128;59.340;18.040;2023-05-07T08:15:47;15.00;69.70
12130;DHT22;6128;59.340;18.040;2023-05-07T08:18:16;14.90;69.40
12130;DHT22;6128;59.340;18.040;2023-05-07T08:20:43;15.10;69.10
12130;DHT22;6128;59.340;18.040;2023-05-07T08:23:10;15.10;68.70
12130;DHT22;6128;59.340;18.040;2023-05-07T08:25:37;14.90;68.70
12130;DHT22;6128;59.340;18.040;2023-05-07T08:28:05;14.90;68.50
12130;DHT22;6128;59.340;18.040;2023-05-07T08:30:32;14.80;68.50
12130;DHT22;6128;59.340;18.040;2023-05-07T08:33:00;14.90;68.50
12130;DHT22;6128;59.340;18.040;2023-05-07T08:35:29;15.00;68.60
12130;DHT22;6128;59.340;18.040;2023-05-07T08:37:56;15.30;68.80
12130;DHT22;6128;59.340;18.040;2023-05-07T08:40:25;15.20;69.00
12130;DHT22;6128;59.340;18.040;2023-05-07T08:42:53;15.10;69.30
12130;DHT22;6128;59.340;18.040;2023-05-07T08:45:20;15.10;69.60
12130;DHT22;6128;59.340;18.040;2023-05-07T08:47:51;15.00;70.00
12130;DHT22;6128;59.340;18.040;2023-05-07T08:50:20;15.20;70.20
12130;DHT22;6128;59.340;18.040;2023-05-07T08:52:49;15.30;71.10
12130;DHT22;6128;59.340;18.040;2023-05-07T08:55:16;15.50;71.10
12130;DHT22;6128;59.340;18.040;2023-05-07T08:57:44;15.80;71.40
12130;DHT22;6128;59.340;18.040;2023-05-07T09:00:12;16.40;71.70
12130;DHT22;6128;59.340;18.040;2023-05-07T09:02:39;16.70;72.20
12130;DHT22;6128;59.340;18.040;2023-05-07T09:05:07;17.00;73.30
12130;DHT22;6128;59.340;18.040;2023-05-07T09:07:35;17.50;73.40
12130;DHT22;6128;59.340;18.040;2023-05-07T09:10:07;18.40;73.90
12130;DHT22;6128;59.340;18.040;2023-05-07T09:12:37;19.30;74.30
12130;DHT22;6128;59.340;18.040;2023-05-07T09:15:06;20.10;74.40
12130;DHT22;6128;59.340;18.040;2023-05-07T09:17:33;20.50;74.70
12130;DHT22;6128;59.340;18.040;2023-05-07T09:20:02;20.00;74.40
12130;DHT22;6128;59.340;18.040;2023-05-07T09:22:31;19.30;71.00
12130;DHT22;6128;59.340;18.040;2023-05-07T09:24:59;18.10;68.70
12130;DHT22;6128;59.340;18.040;2023-05-07T09:27:27;16.80;67.10
12130;DHT22;6128;59.340;18.040;2023-05-07T09:29:54;15.80;66.40
12130;DHT22;6128;59.340;18.040;2023-05-07T09:32:21;15.10;65.70
12130;DHT22;6128;59.340;18.040;2023-05-07T09:34:48;14.70;65.30
12130;DHT22;6128;59.340;18.040;2023-05-07T09:37:15;14.20;64.70
12130;DHT22;6128;59.340;18.040;2023-05-07T09:39:44;13.80;64.50
12130;DHT22;6128;59.340;18.040;2023-05-07T09:42:12;13.40;64.00
12130;DHT22;6128;59.340;18.040;2023-05-07T09:44:43;12.90;63.60
12130;DHT22;6128;59.340;18.040;2023-05-07T09:47:11;12.70;63.40
12130;DHT22;6128;59.340;18.040;2023-05-07T09:49:47;12.40;63.20
12130;DHT22;6128;59.340;18.040;2023-05-07T09:52:15;12.20;63.20
12130;DHT22;6128;59.340;18.040;2023-05-07T09:54:43;12.20;63.10
12130;DHT22;6128;59.340;18.040;2023-05-07T09:57:12;12.00;63.20
12130;DHT22;6128;59.340;18.040;2023-05-07T09:59:43;11.80;63.30
12130;DHT22;6128;59.340;18.040;2023-05-07T10:02:10;11.80;63.40
12130;DHT22;6128;59.340;18.040;2023-05-07T10:04:38;11.80;63.50
12130;DHT22;6128;59.340;18.040;2023-05-07T10:07:07;11.90;63.60
12130;DHT22;6128;59.340;18.040;2023-05-07T10:09:36;12.00;63.70
12130;DHT22;6128;59.340;18.040;2023-05-07T10:12:08;12.00;63.70
12130;DHT22;6128;59.340;18.040;2023-05-07T10:14:36;12.00;63.80
12130;DHT22;6128;59.340;18.040;2023-05-07T10:17:06;12.00;63.90
12130;DHT22;6128;59.340;18.040;2023-05-07T10:19:34;11.90;64.00
12130;DHT22;6128;59.340;18.040;2023-05-07T10:22:05;11.80;64.00
12130;DHT22;6128;59.340;18.040;2023-05-07T10:24:34;11.80;64.00
12130;DHT22;6128;59.340;18.040;2023-05-07T10:27:05;11.90;64.10
12130;DHT22;6128;59.340;18.040;2023-05-07T10:29:43;11.90;64.20
12130;DHT22;6128;59.340;18.040;2023-05-07T10:32:25;11.90;64.20
12130;DHT22;6128;59.340;18.040;2023-05-07T10:34:58;11.80;64.20
12130;DHT22;6128;59.340;18.040;2023-05-07T10:37:27;11.90;64.40
12130;DHT22;6128;59.340;18.040;2023-05-07T10:39:55;11.90;64.40
12130;DHT22;6128;59.340;18.040;2023-05-07T10:42:23;12.10;64.40
12130;DHT22;6128;59.340;18.040;2023-05-07T10:44:50;12.10;64.30
12130;DHT22;6128;59.340;18.040;2023-05-07T10:47:19;12.20;64.30
12130;DHT22;6128;59.340;18.040;2023-05-07T10:50:20;12.30;64.30
12130;DHT22;6128;59.340;18.040;2023-05-07T10:56:25;12.60;64.20
12130;DHT22;6128;59.340;18.040;2023-05-07T10:58:53;12.50;64.20
12130;DHT22;6128;59.340;18.040;2023-05-07T11:01:53;12.50;64.20
12130;DHT22;6128;59.340;18.040;2023-05-07T11:04:22;12.50;64.20
12130;DHT22;6128;59.340;18.040;2023-05-07T11:10:04;12.50;64.20
12130;DHT22;6128;59.340;18.040;2023-05-07T11:12:48;12.50;64.30
12130;DHT22;6128;59.340;18.040;2023-05-07T11:15:15;12.60;64.40
12130;DHT22;6128;59.340;18.040;2023-05-07T11:18:00;12.50;64.50
12130;DHT22;6128;59.340;18.040;2023-05-07T11:20:49;12.40;64.80
12130;DHT22;6128;59.340;18.040;2023-05-07T11:23:58;12.30;64.90
12130;DHT22;6128;59.340;18.040;2023-05-07T11:26:26;12.00;65.30
12130;DHT22;6128;59.340;18.040;2023-05-07T11:28:54;12.20;65.50
12130;DHT22;6128;59.340;18.040;2023-05-07T11:31:24;12.30;65.80
12130;DHT22;6128;59.340;18.040;2023-05-07T11:33:52;12.30;65.90
12130;DHT22;6128;59.340;18.040;2023-05-07T11:36:23;12.30;66.10
12130;DHT22;6128;59.340;18.040;2023-05-07T11:38:50;12.40;66.30
12130;DHT22;6128;59.340;18.040;2023-05-07T11:41:17;12.50;66.30
12130;DHT22;6128;59.340;18.040;2023-05-07T11:43:57;12.60;66.30
12130;DHT22;6128;59.340;18.040;2023-05-07T11:46:24;12.60;66.40
12130;DHT22;6128;59.340;18.040;2023-05-07T11:48:52;12.50;66.40
12130;DHT22;6128;59.340;18.040;2023-05-07T11:51:21;12.50;66.30
12130;DHT22;6128;59.340;18.040;2023-05-07T11:53:50;12.60;66.40
12130;DHT22;6128;59.340;18.040;2023-05-07T11:56:18;12.70;66.40
12130;DHT22;6128;59.340;18.040;2023-05-07T11:58:47;12.70;66.40
12130;DHT22;6128;59.340;18.040;2023-05-07T12:01:14;12.70;66.40
12130;DHT22;6128;59.340;18.040;2023-05-07T12:03:43;12.70;66.50
12130;DHT22;6128;59.340;18.040;2023-05-07T12:06:12;12.70;66.60
12130;DHT22;6128;59.340;18.040;2023-05-07T12:08:41;12.70;66.60
12130;DHT22;6128;59.340;18.040;2023-05-07T12:11:10;12.60;66.60
12130;DHT22;6128;59.340;18.040;2023-05-07T12:13:39;12.60;66.50
12130;DHT22;6128;59.340;18.040;2023-05-07T12:16:07;12.60;66.50
12130;DHT22;6128;59.340;18.040;2023-05-07T12:18:35;12.60;66.40
12130;DHT22;6128;59.340;18.040;2023-05-07T12:21:04;12.70;66.40
12130;DHT22;6128;59.340;18.040;2023-05-07T12:23:31;12.90;66.50
12130;DHT22;6128;59.340;18.040;2023-05-07T12:26:01;13.00;66.50
12130;DHT22;6128;59.340;18.040;2023-05-07T12:28:28;12.80;66.50
12130;DHT22;6128;59.340;18.040;2023-05-07T12:30:56;12.70;66.50
12130;DHT22;6128;59.340;18.040;2023-05-07T12:33:25;12.60;66.50
12130;DHT22;6128;59.340;18.040;2023-05-07T12:35:55;12.70;66.50
12130;DHT22;6128;59.340;18.040;2023-05-07T12:38:22;12.60;66.50
12130;DHT22;6128;59.340;18.040;2023-05-07T12:40:54;12.80;66.50
12130;DHT22;6128;59.340;18.040;2023-05-07T12:43:25;12.90;66.50
12130;DHT22;6128;59.340;18.040;2023-05-07T12:45:54;12.80;66.50
12130;DHT22;6128;59.340;18.040;2023-05-07T12:48:22;12.70;66.40
12130;DHT22;6128;59.340;18.040;2023-05-07T12:50:53;12.70;66.40
12130;DHT22;6128;59.340;18.040;2023-05-07T12:53:21;12.70;66.20
12130;DHT22;6128;59.340;18.040;2023-05-07T12:55:49;12.70;66.00
12130;DHT22;6128;59.340;18.040;2023-05-07T12:58:17;12.70;65.90
12130;DHT22;6128;59.340;18.040;2023-05-07T13:00:48;12.90;65.70
12130;DHT22;6128;59.340;18.040;2023-05-07T13:03:22;12.90;65.60
12130;DHT22;6128;59.340;18.040;2023-05-07T13:05:50;13.00;65.40
12130;DHT22;6128;59.340;18.040;2023-05-07T13:08:28;13.00;65.50
12130;DHT22;6128;59.340;18.040;2023-05-07T13:10:56;13.00;65.40
12130;DHT22;6128;59.340;18.040;2023-05-07T13:13:24;13.00;65.30
12130;DHT22;6128;59.340;18.040;2023-05-07T13:15:52;13.10;65.20
12130;DHT22;6128;59.340;18.040;2023-05-07T13:18:19;13.10;65.10
12130;DHT22;6128;59.340;18.040;2023-05-07T13:20:46;13.00;65.10
12130;DHT22;6128;59.340;18.040;2023-05-07T13:23:14;12.90;65.00
12130;DHT22;6128;59.340;18.040;2023-05-07T13:25:41;12.90;65.00
12130;DHT22;6128;59.340;18.040;2023-05-07T13:28:08;12.90;65.00
12130;DHT22;6128;59.340;18.040;2023-05-07T13:30:35;12.90;65.00
12130;DHT22;6128;59.340;18.040;2023-05-07T13:33:03;12.90;65.00
12130;DHT22;6128;59.340;18.040;2023-05-07T13:35:30;12.90;64.90
12130;DHT22;6128;59.340;18.040;2023-05-07T13:37:57;13.00;64.90
12130;DHT22;6128;59.340;18.040;2023-05-07T13:40:24;12.90;64.90
12130;DHT22;6128;59.340;18.040;2023-05-07T13:42:51;13.00;64.90
12130;DHT22;6128;59.340;18.040;2023-05-07T13:45:19;13.00;64.80
12130;DHT22;6128;59.340;18.040;2023-05-07T13:47:46;13.00;64.70
12130;DHT22;6128;59.340;18.040;2023-05-07T13:50:16;12.90;64.60
12130;DHT22;6128;59.340;18.040;2023-05-07T13:52:44;13.00;64.50
12130;DHT22;6128;59.340;18.040;2023-05-07T13:55:16;13.00;64.40
12130;DHT22;6128;59.340;18.040;2023-05-07T13:57:43;12.90;64.40
12130;DHT22;6128;59.340;18.040;2023-05-07T14:00:14;12.80;64.20
12130;DHT22;6128;59.340;18.040;2023-05-07T14:02:42;12.80;64.20
12130;DHT22;6128;59.340;18.040;2023-05-07T14:05:10;12.90;64.20
12130;DHT22;6128;59.340;18.040;2023-05-07T14:07:40;12.80;64.20
12130;DHT22;6128;59.340;18.040;2023-05-07T14:10:08;12.90;64.10
12130;DHT22;6128;59.340;18.040;2023-05-07T14:12:36;12.80;64.10
12130;DHT22;6128;59.340;18.040;2023-05-07T14:15:04;12.90;64.30
12130;DHT22;6128;59.340;18.040;2023-05-07T14:17:31;12.80;64.30
12130;DHT22;6128;59.340;18.040;2023-05-07T14:19:58;12.70;64.20
12130;DHT22;6128;59.340;18.040;2023-05-07T14:22:26;12.60;64.10
12130;DHT22;6128;59.340;18.040;2023-05-07T14:24:54;12.50;64.10
12130;DHT22;6128;59.340;18.040;2023-05-07T14:27:21;12.60;64.10
12130;DHT22;6128;59.340;18.040;2023-05-07T14:29:48;12.60;63.90
12130;DHT22;6128;59.340;18.040;2023-05-07T14:32:16;12.50;63.90
12130;DHT22;6128;59.340;18.040;2023-05-07T14:34:44;12.50;63.90
12130;DHT22;6128;59.340;18.040;2023-05-07T14:37:12;12.40;63.90
12130;DHT22;6128;59.340;18.040;2023-05-07T14:39:39;12.30;64.00
12130;DHT22;6128;59.340;18.040;2023-05-07T14:42:09;12.20;64.00
12130;DHT22;6128;59.340;18.040;2023-05-07T14:44:37;12.20;64.10
12130;DHT22;6128;59.340;18.040;2023-05-07T14:47:06;12.20;64.20
12130;DHT22;6128;59.340;18.040;2023-05-07T14:49:33;12.20;64.20
12130;DHT22;6128;59.340;18.040;2023-05-07T14:52:00;12.30;64.20
12130;DHT22;6128;59.340;18.040;2023-05-07T14:54:28;12.30;64.30
12130;DHT22;6128;59.340;18.040;2023-05-07T14:56:55;12.30;64.40
12130;DHT22;6128;59.340;18.040;2023-05-07T14:59:24;12.30;64.40
12130;DHT22;6128;59.340;18.040;2023-05-07T15:01:51;12.20;64.40
12130;DHT22;6128;59.340;18.040;2023-05-07T15:04:18;12.00;64.50
12130;DHT22;6128;59.340;18.040;2023-05-07T15:06:45;12.10;64.50
12130;DHT22;6128;59.340;18.040;2023-05-07T15:09:13;12.10;64.40
12130;DHT22;6128;59.340;18.040;2023-05-07T15:11:40;12.00;64.40
12130;DHT22;6128;59.340;18.040;2023-05-07T15:14:07;12.10;64.30
12130;DHT22;6128;59.340;18.040;2023-05-07T15:16:36;12.00;64.30
12130;DHT22;6128;59.340;18.040;2023-05-07T15:19:03;12.00;64.20
12130;DHT22;6128;59.340;18.040;2023-05-07T15:21:30;11.90;64.20
12130;DHT22;6128;59.340;18.040;2023-05-07T15:24:00;11.70;64.20
12130;DHT22;6128;59.340;18.040;2023-05-07T15:26:27;11.70;64.20
12130;DHT22;6128;59.340;18.040;2023-05-07T15:28:54;11.70;64.30
12130;DHT22;6128;59.340;18.040;2023-05-07T15:31:23;11.80;64.30
12130;DHT22;6128;59.340;18.040;2023-05-07T15:33:51;11.80;64.40
12130;DHT22;6128;59.340;18.040;2023-05-07T15:36:19;11.80;64.30
12130;DHT22;6128;59.340;18.040;2023-05-07T15:38:47;11.70;64.30
12130;DHT22;6128;59.340;18.040;2023-05-07T15:41:14;11.70;64.30
12130;DHT22;6128;59.340;18.040;2023-05-07T15:43:45;11.70;64.30
12130;DHT22;6128;59.340;18.040;2023-05-07T15:46:17;11.60;64.10
12130;DHT22;6128;59.340;18.040;2023-05-07T15:48:45;11.60;64.00
12130;DHT22;6128;59.340;18.040;2023-05-07T15:51:14;11.50;64.00